Time;durP1;ratioP1;P1;durP2;ratioP2;P2;SDS_P1;SDS_P2;PMS_P1;PMS_P2;Temp;Humidity;BMP_temperature;BMP_pressure;BME280_temperature;BME280_humidity;BME280_pressure;Samples;Min_cycle;Max_cycle;Signal;HPM_P1;HPM_P2
2022/01/14 00:01:55;;;;;;;69.97;30.38;;;;;;;3.67;98.16;103672.84;7392178;19;20115;-66
2022/01/14 00:04:24;;;;;;;70.90;31.27;;;;;;;3.67;98.15;103674.53;7392979;19;20052;-67
2022/01/14 00:06:53;;;;;;;69.57;31.55;;;;;;;3.65;98.13;103679.69;7400182;19;20400;-65
2022/01/14 00:09:22;;;;;;;63.20;30.45;;;;;;;3.63;98.25;103671.84;7401379;19;20071;-66
2022/01/14 00:11:56;;;;;;;70.63;32.25;;;;;;;3.64;98.15;103673.63;7401160;19;20051;-60
2022/01/14 00:14:37;;;;;;;88.50;30.23;;;;;;;3.60;97.91;103669.16;7398934;19;20039;-63
2022/01/14 00:17:07;;;;;;;113.55;33.05;;;;;;;3.52;97.76;103667.19;7390472;19;20368;-65
2022/01/14 00:19:36;;;;;;;113.78;34.65;;;;;;;3.54;97.86;103666.41;7390687;19;20479;-65
2022/01/14 00:22:10;;;;;;;58.60;29.25;;;;;;;3.50;97.89;103667.13;7390169;19;20011;-63
2022/01/14 00:32:57;;;;;;;70.97;31.27;;;;;;;3.59;98.32;103663.94;7391119;19;20015;-65
2022/01/14 00:35:26;;;;;;;79.32;32.80;;;;;;;3.61;98.27;103667.44;7390979;19;20367;-63
2022/01/14 00:37:54;;;;;;;75.65;33.30;;;;;;;3.60;98.18;103663.97;7389578;19;20114;-66
2022/01/14 00:40:24;;;;;;;59.15;30.13;;;;;;;3.56;97.92;103664.72;7390606;19;20541;-66
2022/01/14 00:42:54;;;;;;;82.13;33.92;;;;;;;3.59;98.18;103666.53;7390146;19;20435;-67
2022/01/14 00:45:25;;;;;;;63.22;31.85;;;;;;;3.62;98.04;103664.03;7390739;19;20124;-65
2022/01/14 00:47:54;;;;;;;61.47;32.10;;;;;;;3.61;97.92;103652.78;7388141;19;20022;-65
2022/01/14 00:50:23;;;;;;;63.80;31.52;;;;;;;3.62;98.17;103648.47;7390391;19;20030;-66
2022/01/14 00:52:52;;;;;;;73.75;33.17;;;;;;;3.60;98.06;103648.44;7390092;19;20019;-63
2022/01/14 00:55:28;;;;;;;69.45;33.92;;;;;;;3.64;98.27;103639.91;7390324;19;20140;-65
2022/01/14 01:00:41;;;;;;;73.13;35.22;;;;;;;3.73;98.14;103641.91;7390139;19;20033;-65
2022/01/14 01:03:10;;;;;;;72.75;34.58;;;;;;;3.81;98.13;103653.38;7390058;19;20452;-64
2022/01/14 01:05:39;;;;;;;70.88;33.13;;;;;;;3.79;97.69;103644.66;7388903;19;20018;-64
2022/01/14 01:08:11;;;;;;;90.43;35.55;;;;;;;3.80;97.65;103643.84;7387766;19;20018;-65
2022/01/14 01:10:47;;;;;;;75.97;34.78;;;;;;;3.79;97.42;103642.06;7363745;19;20367;-65
2022/01/14 01:13:21;;;;;;;79.10;35.25;;;;;;;3.76;97.23;103639.41;7387718;19;20010;-66
2022/01/14 01:15:53;;;;;;;79.53;35.50;;;;;;;3.77;97.20;103629.91;7388829;19;20049;-65
2022/01/14 01:18:23;;;;;;;73.15;35.60;;;;;;;3.76;97.01;103633.34;7387488;19;20021;-66
2022/01/14 01:20:53;;;;;;;82.68;37.25;;;;;;;3.69;96.98;103629.66;7389485;19;20015;-65
2022/01/14 01:23:22;;;;;;;65.20;32.13;;;;;;;3.69;97.20;103634.84;7389186;19;20007;-66
2022/01/14 01:25:57;;;;;;;73.78;34.08;;;;;;;3.71;97.18;103624.53;7388446;19;20011;-65
2022/01/14 01:28:27;;;;;;;85.13;38.03;;;;;;;3.74;97.11;103630.69;7388557;19;20006;-66
2022/01/14 01:31:35;;;;;;;83.75;36.08;;;;;;;3.75;97.01;103628.97;7388732;19;20078;-65
2022/01/14 01:33:56;;;;;;;77.57;37.03;;;;;;;3.71;96.69;103628.03;7387354;19;20014;-65
2022/01/14 01:36:25;;;;;;;78.60;35.75;;;;;;;3.66;96.51;103629.59;7388514;19;20483;-63
2022/01/14 01:38:54;;;;;;;68.20;33.75;;;;;;;3.65;96.79;103627.81;7386882;19;20018;-66
2022/01/14 01:41:23;;;;;;;77.13;35.03;;;;;;;3.63;96.71;103620.00;7388926;19;20020;-67
2022/01/14 01:43:54;;;;;;;78.88;35.78;;;;;;;3.66;96.92;103631.31;7388230;19;20366;-65
2022/01/14 01:46:25;;;;;;;68.28;33.90;;;;;;;3.68;96.85;103630.50;7387476;19;20021;-66
2022/01/14 01:48:55;;;;;;;68.67;33.80;;;;;;;3.72;96.72;103629.75;7386594;19;20379;-65
2022/01/14 01:51:24;;;;;;;69.10;33.13;;;;;;;3.75;96.65;103626.38;7387942;19;20018;-65
2022/01/14 01:53:53;;;;;;;73.18;33.67;;;;;;;3.79;96.63;103621.31;7386446;19;20014;-65
2022/01/14 01:56:22;;;;;;;69.70;33.70;;;;;;;3.81;96.23;103617.09;7386988;19;20018;-66
2022/01/14 01:58:51;;;;;;;69.50;32.38;;;;;;;3.81;95.96;103626.56;7386537;19;20010;-67
2022/01/14 02:01:20;;;;;;;76.53;33.92;;;;;;;3.79;95.68;103629.09;7387357;19;20037;-64
2022/01/14 02:03:55;;;;;;;75.03;35.50;;;;;;;3.78;95.76;103624.78;7388167;19;20014;-66
2022/01/14 02:06:25;;;;;;;66.80;32.65;;;;;;;3.67;95.73;103618.38;7386831;19;20021;-66
2022/01/14 02:08:54;;;;;;;80.88;32.72;;;;;;;3.72;96.31;103613.34;7364097;19;20018;-65
2022/01/14 02:11:23;;;;;;;71.07;34.50;;;;;;;3.73;96.28;103617.69;7388394;19;20013;-66
2022/01/14 02:13:55;;;;;;;72.50;34.78;;;;;;;3.77;96.45;103614.34;7391165;19;20074;-65
2022/01/14 02:16:32;;;;;;;89.73;36.87;;;;;;;3.68;96.17;103612.34;7393923;19;20007;-66
2022/01/14 02:19:24;;;;;;;72.63;34.10;;;;;;;3.66;95.95;103616.63;7391391;19;20270;-64
2022/01/14 02:22:10;;;;;;;80.43;36.15;;;;;;;3.54;96.39;103606.78;7391800;19;20021;-66
2022/01/14 02:27:22;;;;;;;71.78;34.17;;;;;;;3.49;96.88;103600.56;7392360;19;20362;-66
2022/01/14 02:29:51;;;;;;;77.10;35.60;;;;;;;3.51;97.23;103598.91;7394873;19;20034;-65
2022/01/14 02:32:19;;;;;;;71.75;33.83;;;;;;;3.52;97.39;103605.81;7394413;19;20018;-65
2022/01/14 02:34:48;;;;;;;68.93;33.53;;;;;;;3.51;97.19;103593.72;7392891;19;20077;-66
2022/01/14 02:37:21;;;;;;;68.10;32.95;;;;;;;3.48;97.12;103601.38;7392662;19;20029;-67
2022/01/14 02:39:50;;;;;;;;;;;;;;;3.44;96.91;103595.25;7391694;19;20070;-66
2022/01/14 02:42:18;;;;;;;80.10;35.55;;;;;;;3.50;97.38;103598.88;7393712;19;19925;-66
2022/01/14 02:44:48;;;;;;;68.38;32.95;;;;;;;3.52;97.24;103590.28;7394167;19;20441;-65
2022/01/14 02:47:17;;;;;;;76.30;34.88;;;;;;;3.60;97.22;103595.72;7392735;19;20018;-64
2022/01/14 02:49:46;;;;;;;105.03;38.22;;;;;;;3.62;97.17;103599.22;7394411;19;20109;-66
2022/01/14 02:52:15;;;;;;;68.90;32.92;;;;;;;3.59;96.64;103596.53;7395117;19;20034;-66
2022/01/14 02:55:03;;;;;;;67.88;33.95;;;;;;;3.61;96.83;103587.06;7392392;19;20136;-66
2022/01/14 02:57:33;;;;;;;79.47;34.30;;;;;;;3.64;97.04;103589.78;7393180;19;20019;-64
2022/01/14 03:00:04;;;;;;;71.78;34.70;;;;;;;3.61;96.56;103582.78;7401842;19;20456;-69
2022/01/14 03:02:36;;;;;;;104.75;35.33;;;;;;;3.58;96.44;103579.22;7404318;19;20021;-68
2022/01/14 03:05:06;;;;;;;74.60;34.33;;;;;;;3.53;96.41;103588.56;7401029;19;20017;-68
2022/01/14 03:07:34;;;;;;;87.30;36.35;;;;;;;3.48;96.38;103578.06;7401537;19;20104;-68
2022/01/14 03:10:08;;;;;;;62.65;32.47;;;;;;;3.46;96.78;103578.00;7394240;19;20021;-68
2022/01/14 03:12:37;;;;;;;69.95;33.53;;;;;;;3.43;96.88;103585.69;7396125;19;20367;-68
2022/01/14 03:15:07;;;;;;;63.47;33.08;;;;;;;3.47;96.94;103586.69;7392923;19;20078;-68
2022/01/14 03:17:37;;;;;;;64.15;32.22;;;;;;;3.47;96.80;103582.38;7392258;19;20029;-68
2022/01/14 03:20:08;;;;;;;73.18;34.25;;;;;;;3.54;96.99;103570.47;7393831;19;20396;-69
2022/01/14 03:22:41;;;;;;;44.17;23.48;;;;;;;3.56;96.53;103571.38;7396088;19;20015;-68
2022/01/14 03:27:55;;;;;;;67.00;32.42;;;;;;;3.52;96.21;103563.47;7393968;19;20466;-69
2022/01/14 03:30:24;;;;;;;72.97;33.22;;;;;;;3.52;96.40;103556.56;7392390;19;20022;-69
2022/01/14 03:32:53;;;;;;;62.78;31.48;;;;;;;3.49;96.22;103559.06;7394583;19;20070;-68
2022/01/14 03:35:21;;;;;;;69.53;32.70;;;;;;;3.52;96.52;103568.66;7392272;19;20010;-69
2022/01/14 03:37:50;;;;;;;68.28;32.58;;;;;;;3.57;96.55;103560.19;7393395;19;20066;-69
2022/01/14 03:40:22;;;;;;;69.13;32.92;;;;;;;3.57;96.61;103560.19;7392014;19;20011;-69
2022/01/14 03:42:50;;;;;;;65.70;32.97;;;;;;;3.61;96.64;103566.31;7396779;19;20006;-70
2022/01/14 03:45:19;;;;;;;62.63;30.65;;;;;;;3.64;96.30;103556.06;7392841;19;20351;-69
2022/01/14 03:47:48;;;;;;;59.55;30.98;;;;;;;3.60;96.35;103562.88;7393559;19;20019;-68
2022/01/14 03:50:17;;;;;;;66.13;32.50;;;;;;;3.64;96.64;103562.13;7391629;19;20048;-68
2022/01/14 03:52:46;;;;;;;75.65;34.25;;;;;;;3.75;96.54;103567.59;7394429;19;20082;-68
2022/01/14 03:55:14;;;;;;;78.40;34.47;;;;;;;3.70;95.67;103565.75;7391440;19;20023;-69
2022/01/14 03:57:46;;;;;;;72.85;35.40;;;;;;;3.69;96.02;103567.44;7393005;19;20132;-69
2022/01/14 04:00:16;;;;;;;67.55;33.88;;;;;;;3.71;95.78;103573.56;7391464;19;20050;-69
2022/01/14 04:02:45;;;;;;;68.68;33.50;;;;;;;3.69;95.57;103575.22;7393809;19;20014;-69
2022/01/14 04:05:14;;;;;;;101.97;35.40;;;;;;;3.63;95.78;103570.72;7392814;19;20461;-69
2022/01/14 04:07:44;;;;;;;66.47;34.13;;;;;;;3.59;95.87;103578.38;7390044;19;20014;-69
2022/01/14 04:10:13;;;;;;;74.95;35.17;;;;;;;3.59;95.92;103566.28;7390549;19;20017;-69
2022/01/14 04:12:47;;;;;;;69.38;34.45;;;;;;;3.51;95.83;103574.69;7391306;19;20015;-70
2022/01/14 04:18:03;;;;;;;77.88;36.45;;;;;;;3.53;96.57;103575.63;7392049;19;20014;-69
2022/01/14 04:20:32;;;;;;;94.32;35.42;;;;;;;3.53;96.67;103579.06;7391423;19;20030;-69
2022/01/14 04:23:01;;;;;;;74.75;37.08;;;;;;;3.52;96.49;103572.13;7393234;19;20010;-69
2022/01/14 04:25:30;;;;;;;74.80;35.53;;;;;;;3.52;96.56;103579.91;7392815;19;20015;-68
2022/01/14 04:27:59;;;;;;;86.65;37.75;;;;;;;3.51;96.38;103562.63;7392854;19;20018;-68
2022/01/14 04:30:30;;;;;;;64.57;33.45;;;;;;;3.50;96.55;103560.84;7391726;19;20018;-69
2022/01/14 04:32:59;;;;;;;66.20;35.15;;;;;;;3.47;96.59;103556.44;7391242;19;20029;-69
2022/01/14 04:35:28;;;;;;;81.63;34.95;;;;;;;3.46;96.50;103538.25;7390679;19;20044;-69
2022/01/14 04:37:57;;;;;;;77.95;35.80;;;;;;;3.44;96.35;103532.16;7391592;19;20011;-68
2022/01/14 04:40:26;;;;;;;72.00;35.78;;;;;;;3.38;96.63;103530.25;7390471;19;20015;-68
2022/01/14 04:42:57;;;;;;;64.55;32.25;;;;;;;3.36;96.86;103523.28;7392646;19;20024;-68
2022/01/14 04:45:41;;;;;;;75.05;35.05;;;;;;;3.42;97.22;103520.84;7391767;19;20010;-68
2022/01/14 04:48:14;;;;;;;80.15;36.83;;;;;;;3.47;97.30;103519.28;7392004;19;20025;-68
2022/01/14 04:50:43;;;;;;;110.68;38.78;;;;;;;3.53;97.11;103516.84;7391962;19;20022;-68
2022/01/14 04:53:13;;;;;;;71.47;34.92;;;;;;;3.54;96.91;103508.25;7390384;19;20755;-69
2022/01/14 04:55:42;;;;;;;83.40;37.45;;;;;;;3.58;96.86;103511.78;7390518;19;20018;-69
2022/01/14 04:58:11;;;;;;;135.18;41.80;;;;;;;3.56;96.51;103506.56;7389726;19;20015;-69
2022/01/14 05:00:40;;;;;;;118.28;40.15;;;;;;;3.52;96.50;103503.84;7390025;19;20066;-69
2022/01/14 05:03:12;;;;;;;110.10;39.28;;;;;;;3.47;96.30;103514.09;7389928;19;20025;-68
2022/01/14 05:05:44;;;;;;;120.85;39.33;;;;;;;3.41;96.58;103509.63;7392067;19;20803;-68
2022/01/14 05:08:20;;;;;;;98.25;37.97;;;;;;;3.41;96.78;103511.31;7389964;19;20034;-68
2022/01/14 05:11:03;;;;;;;74.85;36.70;;;;;;;3.39;97.03;103513.84;7389870;19;20122;-69
2022/01/14 05:13:32;;;;;;;79.40;36.85;;;;;;;3.44;97.40;103511.44;7391506;19;20030;-68
2022/01/14 05:16:01;;;;;;;77.72;35.58;;;;;;;3.50;97.32;103502.94;7388728;19;20014;-68
2022/01/14 05:18:32;;;;;;;80.60;38.90;;;;;;;3.57;97.43;103503.16;7391366;19;20021;-69
2022/01/14 05:21:01;;;;;;;73.95;36.90;;;;;;;3.63;97.13;103503.31;7391893;19;20311;-69
2022/01/14 05:23:30;;;;;;;72.40;35.30;;;;;;;3.65;97.13;103511.13;7390988;19;20326;-69
2022/01/14 05:25:59;;;;;;;78.20;36.20;;;;;;;3.66;97.04;103520.69;7389598;19;20015;-68
2022/01/14 05:28:28;;;;;;;79.70;37.13;;;;;;;3.69;96.99;103509.53;7390062;19;20340;-68
2022/01/14 05:30:57;;;;;;;76.90;35.15;;;;;;;3.74;96.87;103506.22;7388926;19;20013;-68
2022/01/14 05:33:26;;;;;;;76.40;34.63;;;;;;;3.76;96.56;103514.91;7390309;19;20336;-69
2022/01/14 05:35:57;;;;;;;70.03;33.38;;;;;;;3.79;96.35;103511.53;7388662;19;20019;-69
2022/01/14 05:38:26;;;;;;;82.53;37.95;;;;;;;3.81;96.33;103507.25;7388519;19;20078;-68
2022/01/14 05:40:55;;;;;;;69.75;34.30;;;;;;;3.77;96.08;103511.50;7390233;19;20022;-68
2022/01/14 05:43:24;;;;;;;86.90;34.22;;;;;;;3.76;96.08;103506.25;7391040;19;20015;-69
2022/01/14 05:45:53;;;;;;;72.55;35.42;;;;;;;3.72;95.97;103510.47;7389406;19;20018;-68
2022/01/14 05:48:21;;;;;;;73.07;35.03;;;;;;;3.74;96.20;103520.88;7388177;19;20037;-69
2022/01/14 05:50:50;;;;;;;70.75;34.08;;;;;;;3.74;96.32;103520.88;7389739;19;20017;-69
2022/01/14 05:53:22;;;;;;;73.32;35.70;;;;;;;3.83;96.69;103525.47;7390854;19;20015;-69
2022/01/14 05:55:50;;;;;;;71.13;32.83;;;;;;;3.85;96.58;103519.47;7390152;19;20043;-68
2022/01/14 05:58:19;;;;;;;85.38;34.13;;;;;;;3.88;96.34;103518.69;7389362;19;20020;-69
2022/01/14 06:00:48;;;;;;;65.65;33.10;;;;;;;3.86;96.02;103515.19;7388267;19;20332;-69
2022/01/14 06:03:17;;;;;;;64.47;32.10;;;;;;;3.84;96.15;103511.66;7389855;19;20364;-69
2022/01/14 06:05:46;;;;;;;65.10;32.53;;;;;;;3.77;96.20;103501.13;7389379;19;20015;-69
2022/01/14 06:08:15;;;;;;;60.53;30.35;;;;;;;3.71;96.18;103495.78;7388045;19;20014;-69
2022/01/14 06:10:46;;;;;;;82.63;33.92;;;;;;;3.68;96.28;103498.25;7389719;19;20014;-69
2022/01/14 06:13:15;;;;;;;63.78;33.58;;;;;;;3.64;96.50;103505.09;7390349;19;20019;-69
2022/01/14 06:15:44;;;;;;;69.05;34.05;;;;;;;3.64;96.82;103504.22;7388557;19;20053;-70
2022/01/14 06:18:13;;;;;;;62.10;31.15;;;;;;;3.64;96.83;103502.50;7389982;19;20017;-69
2022/01/14 06:20:42;;;;;;;73.03;35.85;;;;;;;3.61;97.24;103494.63;7389569;19;20025;-69
2022/01/14 06:23:11;;;;;;;58.05;31.95;;;;;;;3.63;97.29;103497.25;7389858;19;20048;-69
2022/01/14 06:25:40;;;;;;;63.35;32.90;;;;;;;3.65;97.44;103490.41;7389322;19;20352;-68
2022/01/14 06:28:11;;;;;;;71.10;33.75;;;;;;;3.70;97.43;103493.13;7389391;19;20015;-69
2022/01/14 06:30:40;;;;;;;70.63;32.58;;;;;;;3.73;97.41;103491.50;7390198;19;20014;-68
2022/01/14 06:33:09;;;;;;;77.15;35.40;;;;;;;3.73;97.23;103491.50;7391490;19;20014;-68
2022/01/14 06:35:38;;;;;;;70.03;33.88;;;;;;;3.70;96.88;103488.81;7389106;19;20017;-68
2022/01/14 06:38:07;;;;;;;63.58;31.95;;;;;;;3.65;96.85;103495.56;7389056;19;20017;-68
2022/01/14 06:40:36;;;;;;;67.00;32.72;;;;;;;3.59;97.14;103492.81;7387847;19;20074;-68
2022/01/14 06:43:05;;;;;;;92.35;34.05;;;;;;;3.57;97.46;103497.09;7389700;19;20566;-68
2022/01/14 06:45:37;;;;;;;73.88;34.38;;;;;;;3.64;97.76;103501.63;7389220;19;20010;-68
2022/01/14 06:48:06;;;;;;;65.28;33.15;;;;;;;3.70;97.93;103490.53;7388412;19;20007;-68
2022/01/14 06:50:35;;;;;;;64.80;33.75;;;;;;;3.69;97.53;103481.88;7387513;19;20025;-68
2022/01/14 06:53:04;;;;;;;64.32;32.75;;;;;;;3.66;97.44;103497.34;7389425;19;20034;-69
2022/01/14 06:55:33;;;;;;;67.22;34.28;;;;;;;3.66;97.60;103497.34;7392199;19;20010;-68
2022/01/14 06:58:02;;;;;;;62.13;32.63;;;;;;;3.65;97.50;103477.44;7388601;19;20021;-68
2022/01/14 07:00:33;;;;;;;70.93;33.85;;;;;;;3.58;97.58;103478.09;7393378;19;20487;-68
2022/01/14 07:03:05;;;;;;;65.05;33.92;;;;;;;3.59;97.40;103475.53;7400638;19;20006;-68
2022/01/14 07:05:34;;;;;;;74.60;35.25;;;;;;;3.57;97.82;103484.13;7398366;19;20070;-68
2022/01/14 07:08:03;;;;;;;72.65;36.10;;;;;;;3.57;97.90;103468.59;7398209;19;20028;-68
2022/01/14 07:10:35;;;;;;;67.10;33.45;;;;;;;3.58;98.12;103476.41;7397103;19;20014;-68
2022/01/14 07:13:05;;;;;;;71.13;34.90;;;;;;;3.57;97.87;103468.59;7403306;19;20003;-69
2022/01/14 07:15:34;;;;;;;64.88;33.28;;;;;;;3.57;97.85;103484.13;7396727;19;20002;-69
2022/01/14 07:18:06;;;;;;;67.57;33.58;;;;;;;3.54;97.85;103476.25;7394454;19;20367;-69
2022/01/14 07:20:35;;;;;;;119.28;40.35;;;;;;;3.58;98.03;103488.47;7395738;19;20003;-69
2022/01/14 07:23:04;;;;;;;68.25;34.00;;;;;;;3.58;97.89;103475.50;7402875;19;20082;-69
2022/01/14 07:25:33;;;;;;;67.75;35.17;;;;;;;3.51;97.86;103482.25;7403323;19;20043;-68
2022/01/14 07:28:01;;;;;;;68.00;33.03;;;;;;;3.50;97.90;103485.66;7404905;19;20414;-69
2022/01/14 07:30:30;;;;;;;74.00;33.10;;;;;;;3.47;97.83;103495.97;7403924;19;20018;-69
2022/01/14 07:32:59;;;;;;;110.43;37.95;;;;;;;3.47;97.83;103503.72;7403740;19;20471;-69
2022/01/14 07:35:30;;;;;;;64.70;32.83;;;;;;;3.50;97.97;103500.34;7400194;19;20022;-68
2022/01/14 07:37:59;;;;;;;69.03;34.53;;;;;;;3.52;98.14;103512.50;7399004;19;20119;-69
2022/01/14 07:40:28;;;;;;;67.60;33.95;;;;;;;3.54;98.00;103490.09;7398116;19;20021;-69
2022/01/14 07:42:57;;;;;;;61.95;32.88;;;;;;;3.55;97.88;103504.81;7399750;19;20070;-69
2022/01/14 07:45:26;;;;;;;82.93;35.08;;;;;;;3.57;97.66;103490.19;7398087;19;20086;-69
2022/01/14 07:47:55;;;;;;;72.15;32.30;;;;;;;3.57;97.80;103491.91;7398689;19;20049;-69
2022/01/14 07:50:24;;;;;;;86.57;34.75;;;;;;;3.54;97.46;103502.16;7398735;19;20010;-69
2022/01/14 07:52:55;;;;;;;94.70;34.50;;;;;;;3.52;97.24;103502.13;7399113;19;20018;-69
2022/01/14 07:55:24;;;;;;;62.45;32.88;;;;;;;3.50;97.64;103503.81;7398595;19;20021;-69
2022/01/14 07:57:53;;;;;;;66.32;33.10;;;;;;;3.52;97.79;103496.06;7397815;19;20011;-69
2022/01/14 08:00:22;;;;;;;62.90;33.00;;;;;;;3.55;97.64;103498.75;7395710;19;20332;-69
2022/01/14 08:02:52;;;;;;;61.55;31.35;;;;;;;3.51;97.53;103508.19;7397925;19;20018;-69
2022/01/14 08:05:21;;;;;;;65.25;33.05;;;;;;;3.47;97.81;103490.78;7396793;19;20011;-68
2022/01/14 08:07:52;;;;;;;66.05;31.95;;;;;;;3.52;97.83;103499.53;7396083;19;20015;-67
2022/01/14 08:10:24;;;;;;;69.65;32.97;;;;;;;3.53;97.79;103493.53;7392636;19;20026;-67
2022/01/14 08:12:52;;;;;;;71.00;33.30;;;;;;;3.51;97.84;103492.63;7395173;19;20015;-67
2022/01/14 08:15:23;;;;;;;66.65;31.70;;;;;;;3.52;97.61;103498.66;7392724;19;20115;-67
2022/01/14 08:17:53;;;;;;;59.90;30.90;;;;;;;3.54;97.72;103512.53;7393678;19;20018;-67
2022/01/14 08:20:23;;;;;;;59.13;31.23;;;;;;;3.51;97.52;103512.47;7392636;19;20367;-67
2022/01/14 08:22:52;;;;;;;67.72;33.90;;;;;;;3.55;97.83;103522.94;7392120;19;20038;-67
2022/01/14 08:25:23;;;;;;;70.82;33.83;;;;;;;3.67;97.94;103518.97;7394314;19;20022;-68
2022/01/14 08:27:52;;;;;;;61.40;32.55;;;;;;;3.77;97.78;103526.19;7394063;19;20035;-68
2022/01/14 08:30:21;;;;;;;66.40;33.97;;;;;;;3.84;97.88;103529.81;7392996;19;20021;-67
2022/01/14 08:32:50;;;;;;;76.43;34.78;;;;;;;3.90;97.37;103540.38;7395790;19;20019;-67
2022/01/14 08:35:19;;;;;;;64.28;31.75;;;;;;;3.92;97.12;103543.88;7391251;19;20022;-67
2022/01/14 08:37:48;;;;;;;64.25;33.47;;;;;;;3.91;96.77;103544.69;7394167;19;20020;-67
2022/01/14 08:40:17;;;;;;;75.72;33.45;;;;;;;3.93;96.58;103536.13;7392570;19;20017;-69
2022/01/14 08:42:52;;;;;;;63.38;31.95;;;;;;;3.94;96.43;103535.31;7393954;19;20010;-68
2022/01/14 08:45:21;;;;;;;69.18;34.67;;;;;;;4.01;96.48;103532.88;7393276;19;20345;-68
2022/01/14 08:47:52;;;;;;;64.97;32.90;;;;;;;4.02;96.24;103526.84;7392931;19;20475;-69
2022/01/14 08:50:22;;;;;;;60.30;30.52;;;;;;;3.99;96.09;103538.00;7390794;19;20030;-68
2022/01/14 08:52:51;;;;;;;61.17;31.23;;;;;;;4.03;96.03;103531.22;7393590;19;20475;-68
2022/01/14 08:55:21;;;;;;;57.92;30.13;;;;;;;3.97;95.96;103532.78;7392722;19;20486;-68
2022/01/14 08:57:53;;;;;;;63.80;32.72;;;;;;;3.95;95.71;103552.63;7392645;19;20029;-68
2022/01/14 09:00:24;;;;;;;57.25;30.85;;;;;;;3.93;95.57;103550.81;7392985;19;20050;-63
2022/01/14 09:02:53;;;;;;;57.15;30.52;;;;;;;3.92;95.77;103552.53;7399109;19;20450;-64
2022/01/14 09:05:23;;;;;;;53.88;29.00;;;;;;;3.92;95.82;103556.84;7394555;19;20014;-65
2022/01/14 09:07:53;;;;;;;60.13;29.92;;;;;;;3.96;96.13;103551.78;7393793;19;20006;-64
2022/01/14 09:10:22;;;;;;;56.85;30.70;;;;;;;3.97;95.89;103539.69;7368445;19;20010;-64
2022/01/14 09:12:54;;;;;;;56.85;29.98;;;;;;;3.94;95.76;103534.41;7394184;19;20019;-62
2022/01/14 09:15:23;;;;;;;55.13;29.80;;;;;;;3.96;95.82;103543.13;7394661;19;20007;-63
2022/01/14 09:17:52;;;;;;;53.45;28.08;;;;;;;4.04;96.03;103545.91;7398786;19;20010;-62
2022/01/14 09:20:21;;;;;;;58.35;30.85;;;;;;;4.07;95.69;103546.88;7412675;19;20082;-64
2022/01/14 09:22:55;;;;;;;54.03;29.25;;;;;;;4.10;95.58;103541.78;7393681;19;20412;-64
2022/01/14 09:25:24;;;;;;;57.53;29.95;;;;;;;4.12;95.87;103537.50;7392752;19;20014;-65
2022/01/14 09:27:56;;;;;;;62.88;31.90;;;;;;;4.18;95.64;103539.38;7391468;19;20434;-64
2022/01/14 09:30:26;;;;;;;64.90;32.33;;;;;;;4.18;95.17;103538.50;7393064;19;20011;-65
2022/01/14 09:32:54;;;;;;;59.45;31.77;;;;;;;4.19;95.11;103540.28;7394227;19;20439;-63
2022/01/14 09:35:23;;;;;;;56.00;30.05;;;;;;;4.19;95.24;103541.13;7393563;19;20760;-64
2022/01/14 09:37:52;;;;;;;54.33;29.48;;;;;;;4.19;95.02;103535.09;7391504;19;20018;-66
2022/01/14 09:40:21;;;;;;;56.88;30.45;;;;;;;4.13;94.96;103535.81;7392480;19;20483;-64
2022/01/14 09:42:51;;;;;;;56.90;30.67;;;;;;;4.17;94.98;103540.25;7393103;19;20014;-63
2022/01/14 09:45:23;;;;;;;59.92;30.42;;;;;;;4.21;95.19;103546.38;7395027;19;20090;-63
2022/01/14 09:47:53;;;;;;;61.90;31.73;;;;;;;4.24;95.03;103544.75;7396986;19;20017;-64
2022/01/14 09:50:22;;;;;;;62.38;31.05;;;;;;;4.22;94.90;103543.81;7393781;19;20016;-67
2022/01/14 09:52:51;;;;;;;53.55;30.20;;;;;;;4.24;94.90;103551.63;7393448;19;20025;-66
2022/01/14 09:55:24;;;;;;;56.13;30.27;;;;;;;4.20;94.91;103553.28;7391643;19;20548;-66
2022/01/14 09:57:53;;;;;;;;;;;;;;;4.21;95.07;103548.97;7389924;19;20332;-68
2022/01/14 10:00:25;;;;;;;58.50;29.02;;;;;;;4.27;94.93;103551.72;7390146;19;19915;-65
2022/01/14 10:02:54;;;;;;;59.22;30.02;;;;;;;4.28;95.02;103556.06;7392550;19;20010;-67
2022/01/14 10:05:37;;;;;;;62.28;31.00;;;;;;;4.32;94.71;103560.50;7391550;19;20015;-64
2022/01/14 10:08:13;;;;;;;56.25;29.15;;;;;;;4.32;94.91;103550.13;7390130;19;20702;-66
2022/01/14 10:10:46;;;;;;;59.65;30.73;;;;;;;4.31;94.61;103556.16;7389103;19;20023;-66
2022/01/14 10:13:17;;;;;;;55.45;29.45;;;;;;;4.29;94.55;103557.84;7391238;19;20360;-67
2022/01/14 10:15:50;;;;;;;56.75;29.15;;;;;;;4.24;94.65;103562.91;7389872;19;20463;-66
2022/01/14 10:18:21;;;;;;;56.75;29.77;;;;;;;4.23;94.64;103563.75;7389816;19;20006;-65
2022/01/14 10:20:51;;;;;;;55.72;29.33;;;;;;;4.22;94.67;103566.31;7388335;19;20025;-66
2022/01/14 10:23:39;;;;;;;57.88;29.98;;;;;;;4.25;95.06;103564.66;7389454;19;20011;-65
2022/01/14 10:26:08;;;;;;;56.72;30.05;;;;;;;4.27;94.93;103559.50;7389793;19;20115;-66
2022/01/14 10:28:37;;;;;;;54.78;28.88;;;;;;;4.28;94.98;103556.06;7391015;19;20023;-66
2022/01/14 10:31:09;;;;;;;55.17;29.65;;;;;;;4.34;95.00;103551.03;7388292;19;20010;-68
2022/01/14 10:33:37;;;;;;;60.53;30.75;;;;;;;4.36;94.62;103554.56;7389749;19;20018;-65
2022/01/14 10:36:07;;;;;;;53.08;29.05;;;;;;;4.36;94.55;103553.69;7394798;19;20039;-66
2022/01/14 10:38:46;;;;;;;59.22;31.58;;;;;;;4.37;94.63;103551.13;7396020;19;20074;-66
2022/01/14 10:41:15;;;;;;;58.53;30.30;;;;;;;4.40;94.59;103547.72;7393320;19;20067;-66
2022/01/14 10:43:45;;;;;;;62.47;31.83;;;;;;;4.44;94.82;103553.06;7396445;19;20047;-66
2022/01/14 10:46:16;;;;;;;60.00;30.83;;;;;;;4.46;94.47;103547.91;7394518;19;20505;-65
2022/01/14 10:48:47;;;;;;;59.08;30.73;;;;;;;4.46;94.17;103538.38;7395837;19;20025;-65
2022/01/14 10:51:19;;;;;;;63.58;32.55;;;;;;;4.46;94.32;103540.09;7393147;19;20442;-65
2022/01/14 10:53:53;;;;;;;59.17;31.10;;;;;;;4.48;94.34;103538.41;7394824;19;20031;-66
2022/01/14 10:56:25;;;;;;;58.17;30.75;;;;;;;4.52;94.37;103540.25;7393727;19;20015;-66
2022/01/14 10:58:59;;;;;;;67.20;32.63;;;;;;;4.56;94.12;103546.41;7394596;19;20019;-67
2022/01/14 11:01:31;;;;;;;53.00;29.52;;;;;;;4.54;93.68;103530.75;7392171;19;20223;-66
2022/01/14 11:04:02;;;;;;;58.15;30.80;;;;;;;4.48;93.58;103538.41;7392839;19;20672;-65
2022/01/14 11:06:32;;;;;;;59.63;31.10;;;;;;;4.43;93.41;103532.25;7391745;19;20021;-66
2022/01/14 11:09:03;;;;;;;58.42;29.83;;;;;;;4.39;93.85;103540.78;7392920;19;20471;-67
2022/01/14 11:11:36;;;;;;;58.97;30.33;;;;;;;4.43;93.92;103543.50;7392574;19;20014;-65
2022/01/14 11:14:07;;;;;;;58.45;31.95;;;;;;;4.44;94.22;103537.47;7390742;19;20447;-67
2022/01/14 11:16:40;;;;;;;62.25;30.27;;;;;;;4.45;93.97;103538.34;7398883;19;20002;-64
2022/01/14 11:19:10;;;;;;;57.50;31.73;;;;;;;4.46;94.16;103532.31;7413387;19;20038;-67
2022/01/14 11:24:25;;;;;;;53.50;30.58;;;;;;;4.56;93.85;103544.69;7394013;19;20015;-66
2022/01/14 11:26:58;;;;;;;62.47;33.55;;;;;;;4.59;93.83;103544.75;7392792;19;20022;-66
2022/01/14 11:29:33;;;;;;;60.13;33.00;;;;;;;4.58;93.25;103536.94;7390572;19;20021;-66
2022/01/14 11:32:07;;;;;;;65.65;33.72;;;;;;;4.56;93.49;103536.03;7392349;19;20018;-66
2022/01/14 11:34:39;;;;;;;58.47;32.17;;;;;;;4.60;93.59;103533.53;7390796;19;20015;-67
2022/01/14 11:37:13;;;;;;;66.40;35.38;;;;;;;4.66;93.61;103530.22;7389100;19;20010;-67
2022/01/14 11:39:55;;;;;;;59.75;31.67;;;;;;;4.66;93.26;103517.22;7390780;19;20049;-66
2022/01/14 11:42:41;;;;;;;61.13;33.23;;;;;;;4.64;93.15;103540.56;7392149;19;20017;-67
2022/01/14 11:45:11;;;;;;;62.58;33.00;;;;;;;4.65;93.28;103531.03;7388352;19;20011;-67
2022/01/14 11:48:03;;;;;;;55.92;31.75;;;;;;;4.65;93.17;103531.03;7389920;19;20019;-65
2022/01/14 11:50:49;;;;;;;63.47;33.60;;;;;;;4.63;93.34;103530.16;7389477;19;20025;-67
2022/01/14 11:53:38;;;;;;;62.35;33.85;;;;;;;4.63;93.36;103530.16;7390988;19;20028;-68
2022/01/14 11:56:09;;;;;;;61.75;32.90;;;;;;;4.58;93.17;103521.34;7390022;19;20021;-67